createdAt,value
2018-10-09T00:02:15.964Z,82.38
2018-10-09T00:04:45.552Z,82.62
2018-10-09T00:07:14.756Z,82.46
2018-10-09T00:09:44.117Z,81.80
2018-10-09T00:12:13.139Z,81.79
2018-10-09T00:14:42.468Z,81.78
2018-10-09T00:17:12.052Z,81.34
2018-10-09T00:19:41.650Z,81.07
2018-10-09T00:22:11.090Z,81.04
2018-10-09T00:24:40.413Z,81.23
2018-10-09T00:27:11.981Z,80.88
2018-10-09T00:29:43.580Z,81.32
2018-10-09T00:32:13.241Z,81.94
2018-10-09T00:34:42.750Z,82.00
2018-10-09T00:37:12.103Z,82.28
2018-10-09T00:39:41.404Z,81.80
2018-10-09T00:42:10.620Z,81.92
2018-10-09T00:44:40.021Z,82.03
2018-10-09T00:47:09.296Z,81.67
2018-10-09T00:49:38.954Z,81.76
2018-10-09T00:52:07.681Z,81.67
2018-10-09T00:54:37.301Z,81.82
2018-10-09T00:57:06.562Z,81.81
2018-10-09T00:59:35.980Z,81.91
2018-10-09T01:02:04.928Z,81.79
2018-10-09T01:04:34.175Z,81.66
2018-10-09T01:07:03.431Z,81.76
2018-10-09T01:09:34.061Z,81.69
2018-10-09T01:12:03.044Z,81.86
2018-10-09T01:14:32.345Z,81.82
2018-10-09T01:17:01.652Z,82.06
2018-10-09T01:19:30.891Z,82.95
2018-10-09T01:21:59.857Z,82.72
2018-10-09T01:24:29.468Z,82.81
2018-10-09T01:26:58.717Z,82.71
2018-10-09T01:29:28.136Z,82.58
2018-10-09T01:31:57.431Z,83.02
2018-10-09T01:34:26.772Z,82.85
2018-10-09T01:36:56.297Z,83.27
2018-10-09T01:39:25.629Z,83.25
2018-10-09T01:41:54.868Z,83.65
2018-10-09T01:44:23.958Z,83.43
2018-10-09T01:46:52.967Z,83.46
2018-10-09T01:49:22.411Z,84.30
2018-10-09T01:51:51.079Z,83.52
2018-10-09T01:54:20.366Z,83.83
2018-10-09T01:56:49.308Z,83.69
2018-10-09T01:59:18.624Z,83.90
2018-10-09T02:01:47.910Z,84.05
2018-10-09T02:04:17.344Z,84.05
2018-10-09T02:06:46.657Z,84.04
2018-10-09T02:09:16.286Z,84.79
2018-10-09T02:11:45.760Z,84.70
2018-10-09T02:14:14.923Z,85.21
2018-10-09T02:16:44.167Z,84.95
2018-10-09T02:19:13.465Z,85.28
2018-10-09T02:21:42.487Z,85.52
2018-10-09T02:24:11.756Z,85.53
2018-10-09T02:26:40.992Z,85.57
2018-10-09T02:29:10.297Z,85.61
2018-10-09T02:31:39.554Z,85.95
2018-10-09T02:34:08.838Z,85.62
2018-10-09T02:36:38.399Z,85.68
2018-10-09T02:39:07.150Z,85.78
2018-10-09T02:41:36.205Z,86.14
2018-10-09T02:44:05.497Z,86.23
2018-10-09T02:46:34.489Z,86.47
2018-10-09T02:49:03.753Z,86.73
2018-10-09T02:51:34.389Z,87.09
2018-10-09T02:54:05.424Z,86.88
2018-10-09T02:56:34.828Z,87.30
2018-10-09T02:59:04.377Z,87.67
2018-10-09T03:01:34.404Z,87.81
2018-10-09T03:04:03.713Z,87.86
2018-10-09T03:06:34.368Z,87.46
2018-10-09T03:09:03.173Z,87.12
2018-10-09T03:11:32.466Z,86.83
2018-10-09T03:14:01.750Z,87.20
2018-10-09T03:16:31.076Z,87.29
2018-10-09T03:19:00.157Z,87.08
2018-10-09T03:21:29.457Z,87.11
2018-10-09T03:23:58.727Z,87.21
2018-10-09T03:26:28.158Z,87.59
2018-10-09T03:28:57.623Z,87.23
2018-10-09T03:31:26.761Z,87.59
2018-10-09T03:33:56.075Z,86.88
2018-10-09T03:36:25.558Z,86.79
2018-10-09T03:38:54.512Z,86.70
2018-10-09T03:41:23.469Z,86.43
2018-10-09T03:43:52.746Z,86.92
2018-10-09T03:46:22.087Z,86.70
2018-10-09T03:48:51.626Z,86.63
2018-10-09T03:51:30.201Z,86.63
2018-10-09T03:53:59.568Z,86.52
2018-10-09T03:56:28.571Z,86.84
2018-10-09T03:58:57.886Z,87.57
2018-10-09T04:01:27.494Z,87.69
2018-10-09T04:03:56.789Z,87.68
2018-10-09T04:06:26.403Z,87.76
2018-10-09T04:08:55.717Z,87.97
2018-10-09T04:11:25.510Z,87.91
2018-10-09T04:13:54.818Z,87.94
2018-10-09T04:16:23.852Z,88.00
2018-10-09T04:18:53.165Z,88.06
2018-10-09T04:21:22.206Z,87.82
2018-10-09T04:23:51.609Z,87.53
2018-10-09T04:26:21.090Z,87.64
2018-10-09T04:28:51.652Z,87.54
2018-10-09T04:31:20.919Z,87.65
2018-10-09T04:33:50.504Z,87.71
2018-10-09T04:36:19.802Z,87.53
2018-10-09T04:38:49.101Z,88.11
2018-10-09T04:41:18.589Z,88.09
2018-10-09T04:43:48.169Z,88.52
2018-10-09T04:46:17.471Z,88.33
2018-10-09T04:48:46.692Z,88.36
2018-10-09T04:51:15.733Z,88.41
2018-10-09T04:53:44.813Z,88.26
2018-10-09T04:56:14.091Z,88.63
2018-10-09T04:58:43.681Z,88.86
2018-10-09T05:01:13.895Z,88.76
2018-10-09T05:03:43.205Z,88.94
2018-10-09T05:06:12.712Z,89.49
2018-10-09T05:08:42.006Z,89.34
2018-10-09T05:11:11.292Z,88.87
2018-10-09T05:13:40.757Z,89.03
2018-10-09T05:16:10.207Z,88.91
2018-10-09T05:18:39.801Z,88.94
2018-10-09T05:21:08.737Z,89.08
2018-10-09T05:23:38.036Z,89.19
2018-10-09T05:26:07.032Z,89.39
2018-10-09T05:28:36.316Z,89.43
2018-10-09T05:31:05.494Z,89.11
2018-10-09T05:33:35.242Z,89.76
2018-10-09T05:36:04.409Z,89.82
2018-10-09T05:38:34.692Z,89.55
2018-10-09T05:41:03.655Z,89.90
2018-10-09T05:43:32.948Z,89.53
2018-10-09T05:46:02.249Z,89.63
2018-10-09T05:48:31.824Z,89.23
2018-10-09T05:51:01.103Z,89.24
2018-10-09T05:53:30.921Z,89.18
2018-10-09T05:56:00.188Z,89.25
2018-10-09T05:58:29.878Z,89.48
2018-10-09T06:00:58.944Z,89.26
2018-10-09T06:03:28.221Z,89.18
2018-10-09T06:05:57.795Z,88.89
2018-10-09T06:08:27.221Z,88.85
2018-10-09T06:10:56.809Z,88.51
2018-10-09T06:13:26.087Z,88.78
2018-10-09T06:15:55.392Z,89.12
2018-10-09T06:18:24.872Z,89.32
2018-10-09T06:20:54.173Z,89.20
2018-10-09T06:23:23.800Z,89.24
2018-10-09T06:25:52.752Z,89.67
2018-10-09T06:28:22.092Z,89.52
2018-10-09T06:30:51.812Z,89.84
2018-10-09T06:33:21.093Z,89.91
2018-10-09T06:35:50.043Z,89.64
2018-10-09T06:38:19.311Z,89.60
2018-10-09T06:40:48.874Z,89.61
2018-10-09T06:43:18.147Z,89.28
2018-10-09T06:45:47.432Z,89.63
2018-10-09T06:48:16.918Z,89.18
2018-10-09T06:50:46.496Z,88.96
2018-10-09T06:53:15.866Z,89.26
2018-10-09T06:55:44.805Z,88.97
2018-10-09T06:58:14.098Z,88.66
2018-10-09T07:00:43.147Z,88.78
2018-10-09T07:03:12.431Z,88.68
2018-10-09T07:05:42.027Z,88.72
2018-10-09T07:08:11.510Z,88.53
2018-10-09T07:10:41.097Z,88.67
2018-10-09T07:13:10.369Z,87.64
2018-10-09T07:15:39.982Z,87.30
2018-10-09T07:18:09.253Z,87.59
2018-10-09T07:20:38.832Z,87.52
2018-10-09T07:23:07.777Z,87.59
2018-10-09T07:25:37.196Z,87.23
2018-10-09T07:28:05.919Z,86.32
2018-10-09T07:30:35.486Z,86.06
2018-10-09T07:33:04.778Z,85.31
2018-10-09T07:35:35.150Z,84.02
2018-10-09T07:38:03.821Z,83.55
2018-10-09T07:40:33.173Z,82.68
2018-10-09T07:43:02.468Z,82.24
2018-10-09T07:45:32.129Z,81.42
2018-10-09T07:48:01.434Z,79.96
2018-10-09T07:50:31.174Z,79.53
2018-10-09T07:53:00.517Z,78.80
2018-10-09T07:55:30.200Z,77.70
2018-10-09T07:57:59.505Z,76.45
2018-10-09T08:00:29.049Z,76.31
2018-10-09T08:02:58.358Z,77.29
2018-10-09T08:05:27.458Z,75.20
2018-10-09T08:07:57.038Z,74.44
2018-10-09T08:10:26.388Z,74.70
2018-10-09T08:12:56.135Z,75.98
2018-10-09T08:15:25.409Z,76.08
2018-10-09T08:17:54.984Z,75.57
2018-10-09T08:20:24.269Z,74.14
2018-10-09T08:22:53.636Z,73.57
2018-10-09T08:25:23.162Z,70.39
2018-10-09T08:27:52.511Z,69.74
2018-10-09T08:30:21.796Z,68.88
2018-10-09T08:32:51.381Z,67.68
2018-10-09T08:35:20.669Z,68.48
2018-10-09T08:37:50.265Z,66.76
2018-10-09T08:40:19.615Z,67.50
2018-10-09T08:42:49.063Z,66.89
2018-10-09T08:45:18.120Z,64.83
2018-10-09T08:47:47.073Z,64.80
2018-10-09T08:50:16.359Z,63.78
2018-10-09T08:52:48.656Z,62.91
2018-10-09T08:55:20.473Z,62.76
2018-10-09T08:57:51.300Z,62.22
2018-10-09T09:00:20.604Z,62.50
2018-10-09T09:02:49.624Z,62.03
2018-10-09T09:05:19.205Z,59.80
2018-10-09T09:07:48.773Z,59.14
2018-10-09T09:10:18.295Z,58.53
2018-10-09T09:12:47.585Z,58.64
2018-10-09T09:15:17.187Z,58.00
2018-10-09T09:17:46.717Z,57.86
2018-10-09T09:20:16.245Z,56.48
2018-10-09T09:22:45.192Z,55.78
2018-10-09T09:25:14.240Z,57.24
2018-10-09T09:27:43.687Z,54.79
2018-10-09T09:30:17.165Z,55.43
2018-10-09T09:32:48.309Z,53.88
2018-10-09T09:35:17.591Z,52.49
2018-10-09T09:37:47.444Z,52.62
2018-10-09T09:40:18.627Z,52.66
2018-10-09T09:42:51.357Z,51.65
2018-10-09T09:45:23.352Z,51.63
2018-10-09T09:47:52.313Z,52.01
2018-10-09T09:50:21.600Z,51.53
2018-10-09T09:52:50.888Z,52.82
2018-10-09T09:55:20.421Z,51.99
2018-10-09T09:57:49.796Z,52.43
2018-10-09T10:00:18.737Z,52.61
2018-10-09T10:02:48.580Z,51.27
2018-10-09T10:05:17.856Z,49.35
2018-10-09T10:08:01.478Z,49.38
2018-10-09T10:10:31.396Z,48.83
2018-10-09T10:13:00.693Z,47.14
2018-10-09T10:15:29.976Z,47.48
2018-10-09T10:17:59.381Z,46.99
2018-10-09T10:20:29.520Z,46.85
2018-10-09T10:23:00.261Z,46.98
2018-10-09T10:25:29.549Z,47.59
2018-10-09T10:27:58.855Z,45.95
2018-10-09T10:30:28.473Z,45.87
2018-10-09T10:33:09.730Z,44.88
2018-10-09T10:35:43.502Z,46.15
2018-10-09T10:38:13.497Z,45.85
2018-10-09T10:40:43.259Z,44.86
2018-10-09T10:43:12.575Z,43.84
2018-10-09T10:45:41.853Z,43.67
2018-10-09T10:48:11.149Z,44.10
2018-10-09T10:50:40.716Z,45.05
2018-10-09T10:53:13.967Z,44.60
2018-10-09T10:55:43.817Z,44.97
2018-10-09T10:58:13.117Z,44.73
2018-10-09T11:00:42.688Z,45.04
2018-10-09T11:03:11.710Z,44.74
2018-10-09T11:05:40.829Z,45.63
2018-10-09T11:08:10.472Z,45.12
2018-10-09T11:10:39.940Z,45.65
2018-10-09T11:13:09.566Z,45.03
2018-10-09T11:15:38.854Z,45.05
2018-10-09T11:18:08.120Z,44.19
2018-10-09T11:20:37.850Z,45.08
2018-10-09T11:23:06.592Z,43.92
2018-10-09T11:25:35.899Z,44.35
2018-10-09T11:28:04.940Z,44.12
2018-10-09T11:30:35.581Z,44.61
2018-10-09T11:33:04.884Z,44.61
2018-10-09T11:35:44.211Z,44.91
2018-10-09T11:38:19.620Z,43.43
2018-10-09T11:40:50.616Z,43.72
2018-10-09T11:43:19.909Z,44.06
2018-10-09T11:45:49.165Z,44.05
2018-10-09T11:48:18.597Z,43.63
2018-10-09T11:50:48.529Z,43.26
2018-10-09T11:53:19.677Z,42.68
2018-10-09T11:55:58.839Z,42.21
2018-10-09T11:58:28.685Z,42.51
2018-10-09T12:00:57.941Z,41.90
2018-10-09T12:03:27.368Z,41.82
2018-10-09T12:05:56.353Z,41.73
2018-10-09T12:08:25.642Z,41.73
2018-10-09T12:10:54.921Z,42.52
2018-10-09T12:13:24.226Z,42.85
2018-10-09T12:15:53.525Z,43.04
2018-10-09T12:18:22.621Z,43.74
2018-10-09T12:20:58.196Z,43.80
2018-10-09T12:23:27.632Z,43.87
2018-10-09T12:25:56.583Z,44.46
2018-10-09T12:28:25.873Z,43.91
2018-10-09T12:30:55.154Z,43.11
2018-10-09T12:33:25.793Z,43.04
2018-10-09T12:35:57.983Z,43.55
2018-10-09T12:38:27.326Z,43.40
2018-10-09T12:40:56.794Z,43.64
2018-10-09T12:43:26.081Z,43.55
2018-10-09T12:45:55.406Z,43.49
2018-10-09T12:48:24.781Z,43.50
2018-10-09T12:50:54.149Z,42.78
2018-10-09T12:53:23.548Z,43.61
2018-10-09T12:55:53.044Z,45.09
2018-10-09T12:58:22.021Z,44.59
2018-10-09T13:00:51.471Z,44.64
2018-10-09T13:03:22.453Z,45.16
2018-10-09T13:05:52.069Z,44.43
2018-10-09T13:08:24.113Z,44.84
2018-10-09T13:10:55.668Z,45.21
2018-10-09T13:13:26.620Z,44.59
2018-10-09T13:15:55.905Z,45.47
2018-10-09T13:18:25.193Z,45.76
2018-10-09T13:20:54.474Z,44.80
2018-10-09T13:23:23.917Z,44.76
2018-10-09T13:25:53.509Z,45.07
2018-10-09T13:28:22.851Z,45.34
2018-10-09T13:30:52.180Z,44.90
2018-10-09T13:33:21.841Z,45.85
2018-10-09T13:35:51.140Z,46.24
2018-10-09T13:38:20.533Z,45.36
2018-10-09T13:40:50.240Z,45.25
2018-10-09T13:43:19.576Z,45.24
2018-10-09T13:45:48.802Z,46.03
2018-10-09T13:48:17.521Z,45.97
2018-10-09T13:50:47.140Z,46.31
2018-10-09T13:53:16.549Z,46.24
2018-10-09T13:55:46.160Z,46.76
2018-10-09T13:58:15.437Z,46.35
2018-10-09T14:00:44.628Z,46.75
2018-10-09T14:03:13.940Z,45.97
2018-10-09T14:05:43.236Z,46.38
2018-10-09T14:08:12.813Z,46.79
2018-10-09T14:10:42.113Z,47.34
2018-10-09T14:13:11.405Z,47.16
2018-10-09T14:15:40.969Z,47.55
2018-10-09T14:18:10.260Z,47.80
2018-10-09T14:20:40.164Z,47.69
2018-10-09T14:23:09.511Z,46.81
2018-10-09T14:25:38.705Z,47.29
2018-10-09T14:28:07.722Z,47.97
2018-10-09T14:30:36.758Z,48.61
2018-10-09T14:33:06.077Z,48.24
2018-10-09T14:35:36.349Z,47.71
2018-10-09T14:38:05.759Z,48.17
2018-10-09T14:40:36.014Z,48.69
2018-10-09T14:43:04.953Z,48.76
2018-10-09T14:45:34.250Z,48.49
2018-10-09T14:48:03.527Z,47.82
2018-10-09T14:50:33.028Z,46.76
2018-10-09T14:53:02.327Z,47.25
2018-10-09T14:55:31.628Z,47.03
2018-10-09T14:58:01.108Z,47.65
2018-10-09T15:00:30.421Z,47.33
2018-10-09T15:03:00.029Z,48.67
2018-10-09T15:05:29.477Z,49.08
2018-10-09T15:07:59.034Z,49.49
2018-10-09T15:10:28.330Z,49.08
2018-10-09T15:12:57.617Z,49.71
2018-10-09T15:15:26.879Z,49.80
2018-10-09T15:17:55.962Z,50.45
2018-10-09T15:20:25.129Z,49.53
2018-10-09T15:22:54.418Z,49.43
2018-10-09T15:25:23.721Z,49.62
2018-10-09T15:27:52.792Z,50.27
2018-10-09T15:30:22.293Z,49.87
2018-10-09T15:32:51.568Z,49.26
2018-10-09T15:35:21.191Z,49.03
2018-10-09T15:37:50.590Z,49.40
2018-10-09T15:40:19.885Z,49.74
2018-10-09T15:42:49.436Z,49.95
2018-10-09T15:45:18.741Z,49.62
2018-10-09T15:47:48.322Z,49.72
2018-10-09T15:50:17.624Z,49.84
2018-10-09T15:52:46.992Z,50.04
2018-10-09T15:55:16.416Z,50.31
2018-10-09T15:57:45.713Z,50.86
2018-10-09T16:00:15.398Z,50.96
2018-10-09T16:02:44.693Z,51.39
2018-10-09T16:05:13.473Z,51.11
2018-10-09T16:07:42.803Z,51.29
2018-10-09T16:10:12.438Z,51.46
2018-10-09T16:12:41.394Z,51.96
2018-10-09T16:15:10.667Z,52.62
2018-10-09T16:17:40.256Z,52.60
2018-10-09T16:20:09.309Z,52.58
2018-10-09T16:22:38.606Z,52.87
2018-10-09T16:25:07.554Z,53.90
2018-10-09T16:27:37.097Z,53.54
2018-10-09T16:30:09.040Z,54.32
2018-10-09T16:32:38.417Z,55.05
2018-10-09T16:35:07.307Z,55.51
2018-10-09T16:37:36.708Z,55.21
2018-10-09T16:40:05.433Z,55.91
2018-10-09T16:42:34.733Z,56.23
2018-10-09T16:45:04.122Z,56.47
2018-10-09T16:47:33.197Z,56.95
2018-10-09T16:50:03.653Z,57.47
2018-10-09T16:52:35.101Z,57.24
2018-10-09T16:55:04.098Z,57.20
2018-10-09T16:57:33.484Z,57.69
2018-10-09T17:00:02.770Z,58.57
2018-10-09T17:02:32.400Z,58.36
2018-10-09T17:05:01.688Z,59.22
2018-10-09T17:07:30.981Z,60.13
2018-10-09T17:10:00.466Z,60.51
2018-10-09T17:12:29.768Z,60.33
2018-10-09T17:14:59.348Z,60.94
2018-10-09T17:17:28.655Z,61.12
2018-10-09T17:19:57.666Z,62.54
2018-10-09T17:22:27.235Z,62.24
2018-10-09T17:24:56.681Z,62.25
2018-10-09T17:27:25.987Z,63.30
2018-10-09T17:29:55.480Z,63.60
2018-10-09T17:32:24.826Z,64.18
2018-10-09T17:34:54.452Z,64.70
2018-10-09T17:37:24.912Z,64.66
2018-10-09T17:39:58.589Z,65.49
2018-10-09T17:42:28.933Z,65.18
2018-10-09T17:44:58.451Z,64.97
2018-10-09T17:47:27.416Z,65.63
2018-10-09T17:49:56.700Z,65.38
2018-10-09T17:52:25.989Z,66.19
2018-10-09T17:54:55.605Z,66.56
2018-10-09T17:57:24.893Z,66.76
2018-10-09T17:59:54.477Z,67.15
2018-10-09T18:02:23.794Z,66.87
2018-10-09T18:04:54.444Z,68.04
2018-10-09T18:07:26.430Z,67.88
2018-10-09T18:09:55.645Z,68.44
2018-10-09T18:12:24.930Z,68.99
2018-10-09T18:14:54.539Z,68.36
2018-10-09T18:17:24.021Z,68.56
2018-10-09T18:19:53.597Z,69.46
2018-10-09T18:22:22.902Z,69.16
2018-10-09T18:24:52.498Z,69.85
2018-10-09T18:27:21.743Z,69.89
2018-10-09T18:29:51.049Z,70.10
2018-10-09T18:32:20.629Z,70.08
2018-10-09T18:34:50.156Z,70.24
2018-10-09T18:37:19.781Z,70.48
2018-10-09T18:39:49.249Z,70.60
2018-10-09T18:42:18.681Z,70.62
2018-10-09T18:44:47.858Z,70.11
2018-10-09T18:47:17.015Z,70.36
2018-10-09T18:49:46.281Z,70.09
2018-10-09T18:52:18.250Z,70.46
2018-10-09T18:54:47.869Z,70.33
2018-10-09T18:57:17.186Z,70.41
2018-10-09T18:59:46.750Z,70.67
2018-10-09T19:02:16.054Z,70.89
2018-10-09T19:04:45.763Z,70.52
2018-10-09T19:07:15.262Z,70.45
2018-10-09T19:09:44.871Z,71.45
2018-10-09T19:12:14.225Z,71.59
2018-10-09T19:14:44.023Z,71.22
2018-10-09T19:17:13.360Z,71.69
2018-10-09T19:19:43.065Z,71.79
2018-10-09T19:22:12.710Z,71.75
2018-10-09T19:24:43.666Z,72.46
2018-10-09T19:27:14.291Z,72.72
2018-10-09T19:32:27.209Z,73.06
2018-10-09T19:34:56.927Z,73.81
2018-10-09T19:37:27.200Z,75.31
2018-10-09T19:40:03.122Z,75.16
2018-10-09T20:54:22.278Z,80.26
2018-10-09T20:56:55.039Z,80.48
2018-10-09T20:59:32.841Z,81.01
2018-10-09T21:02:03.130Z,81.18
2018-10-09T21:04:32.429Z,80.53
2018-10-09T21:07:01.994Z,80.53
2018-10-09T21:09:31.513Z,80.29
2018-10-09T21:12:00.801Z,80.69
2018-10-09T21:14:30.127Z,80.25
2018-10-09T21:17:00.603Z,80.07
2018-10-09T21:19:34.052Z,79.63
2018-10-09T21:22:07.069Z,80.20
2018-10-09T21:24:36.586Z,80.78
2018-10-09T21:27:12.511Z,80.94
2018-10-09T21:29:42.698Z,81.02
2018-10-09T21:32:17.739Z,80.62
2018-10-09T22:33:47.748Z,85.49
2018-10-09T22:36:17.202Z,85.06
2018-10-09T22:38:46.854Z,84.98
2018-10-09T22:41:16.037Z,85.42
2018-10-09T22:43:45.955Z,85.21
2018-10-09T22:46:15.145Z,85.48
2018-10-09T22:48:44.600Z,85.65
2018-10-09T22:51:13.625Z,85.67
2018-10-09T22:53:43.057Z,86.17
